sensor_id;sensor_type;location;lat;lon;timestamp;pressure;altitude;pressure_sealevel;temperature
45850;BMP180;10739;52.198;20.908;2023-01-25T00:02:08;102386.00;;;5.70
45850;BMP180;10739;52.198;20.908;2023-01-25T00:04:34;102382.00;;;5.90
45850;BMP180;10739;52.198;20.908;2023-01-25T00:07:00;102387.00;;;5.90
45850;BMP180;10739;52.198;20.908;2023-01-25T00:09:27;102397.00;;;6.00
45850;BMP180;10739;52.198;20.908;2023-01-25T00:11:53;102399.00;;;6.00
45850;BMP180;10739;52.198;20.908;2023-01-25T00:14:21;102390.00;;;6.00
45850;BMP180;10739;52.198;20.908;2023-01-25T00:16:48;102391.00;;;5.90
45850;BMP180;10739;52.198;20.908;2023-01-25T00:19:14;102395.00;;;6.10
45850;BMP180;10739;52.198;20.908;2023-01-25T00:21:40;102398.00;;;5.70
45850;BMP180;10739;52.198;20.908;2023-01-25T00:24:06;102399.00;;;5.80
45850;BMP180;10739;52.198;20.908;2023-01-25T00:26:34;102389.00;;;5.60
45850;BMP180;10739;52.198;20.908;2023-01-25T00:29:01;102385.00;;;5.60
45850;BMP180;10739;52.198;20.908;2023-01-25T00:34:06;102372.00;;;5.80
45850;BMP180;10739;52.198;20.908;2023-01-25T00:36:39;102369.00;;;5.40
45850;BMP180;10739;52.198;20.908;2023-01-25T00:39:10;102381.00;;;5.80
45850;BMP180;10739;52.198;20.908;2023-01-25T00:41:36;102372.00;;;5.50
45850;BMP180;10739;52.198;20.908;2023-01-25T00:44:03;102365.00;;;5.50
45850;BMP180;10739;52.198;20.908;2023-01-25T00:46:29;102378.00;;;5.50
45850;BMP180;10739;52.198;20.908;2023-01-25T00:48:55;102366.00;;;5.40
45850;BMP180;10739;52.198;20.908;2023-01-25T00:51:23;102357.00;;;5.40
45850;BMP180;10739;52.198;20.908;2023-01-25T00:53:49;102358.00;;;5.30
45850;BMP180;10739;52.198;20.908;2023-01-25T00:56:16;102354.00;;;5.30
45850;BMP180;10739;52.198;20.908;2023-01-25T00:58:43;102361.00;;;5.20
45850;BMP180;10739;52.198;20.908;2023-01-25T01:01:10;102358.00;;;4.90
45850;BMP180;10739;52.198;20.908;2023-01-25T01:03:36;102352.00;;;5.10
45850;BMP180;10739;52.198;20.908;2023-01-25T01:06:06;102342.00;;;4.80
45850;BMP180;10739;52.198;20.908;2023-01-25T01:08:40;102353.00;;;4.00
45850;BMP180;10739;52.198;20.908;2023-01-25T01:11:09;102358.00;;;4.20
45850;BMP180;10739;52.198;20.908;2023-01-25T01:13:36;102354.00;;;4.40
45850;BMP180;10739;52.198;20.908;2023-01-25T01:16:05;102349.00;;;5.00
45850;BMP180;10739;52.198;20.908;2023-01-25T01:18:51;102344.00;;;4.60
45850;BMP180;10739;52.198;20.908;2023-01-25T01:21:17;102339.00;;;4.30
45850;BMP180;10739;52.198;20.908;2023-01-25T01:23:44;102343.00;;;4.60
45850;BMP180;10739;52.198;20.908;2023-01-25T01:26:12;102344.00;;;4.30
45850;BMP180;10739;52.198;20.908;2023-01-25T01:28:39;102347.00;;;4.00
45850;BMP180;10739;52.198;20.908;2023-01-25T01:31:25;102346.00;;;4.50
45850;BMP180;10739;52.198;20.908;2023-01-25T01:33:54;102347.00;;;5.00
45850;BMP180;10739;52.198;20.908;2023-01-25T01:36:23;102347.00;;;5.30
45850;BMP180;10739;52.198;20.908;2023-01-25T01:38:50;102335.00;;;4.70
45850;BMP180;10739;52.198;20.908;2023-01-25T01:41:17;102335.00;;;4.00
45850;BMP180;10739;52.198;20.908;2023-01-25T01:43:43;102337.00;;;4.40
45850;BMP180;10739;52.198;20.908;2023-01-25T01:46:12;102337.00;;;4.40
45850;BMP180;10739;52.198;20.908;2023-01-25T01:48:44;102342.00;;;4.20
45850;BMP180;10739;52.198;20.908;2023-01-25T01:53:43;102329.00;;;4.80
45850;BMP180;10739;52.198;20.908;2023-01-25T01:56:12;102334.00;;;5.10
45850;BMP180;10739;52.198;20.908;2023-01-25T01:58:41;102333.00;;;4.50
45850;BMP180;10739;52.198;20.908;2023-01-25T02:01:08;102332.00;;;4.30
45850;BMP180;10739;52.198;20.908;2023-01-25T02:03:34;102335.00;;;4.00
45850;BMP180;10739;52.198;20.908;2023-01-25T02:06:11;102329.00;;;4.70
45850;BMP180;10739;52.198;20.908;2023-01-25T02:08:38;102331.00;;;4.80
45850;BMP180;10739;52.198;20.908;2023-01-25T02:11:06;102328.00;;;4.20
45850;BMP180;10739;52.198;20.908;2023-01-25T02:13:34;102325.00;;;3.70
45850;BMP180;10739;52.198;20.908;2023-01-25T02:16:00;102332.00;;;4.40
45850;BMP180;10739;52.198;20.908;2023-01-25T02:18:27;102328.00;;;3.80
45850;BMP180;10739;52.198;20.908;2023-01-25T02:20:56;102320.00;;;4.30
45850;BMP180;10739;52.198;20.908;2023-01-25T02:23:41;102321.00;;;4.40
45850;BMP180;10739;52.198;20.908;2023-01-25T02:26:14;102315.00;;;4.80
45850;BMP180;10739;52.198;20.908;2023-01-25T02:28:51;102305.00;;;4.50
45850;BMP180;10739;52.198;20.908;2023-01-25T02:31:19;102315.00;;;4.40
45850;BMP180;10739;52.198;20.908;2023-01-25T02:33:50;102309.00;;;4.00
45850;BMP180;10739;52.198;20.908;2023-01-25T02:36:28;102308.00;;;3.70
45850;BMP180;10739;52.198;20.908;2023-01-25T02:39:01;102317.00;;;3.90
45850;BMP180;10739;52.198;20.908;2023-01-25T02:41:36;102304.00;;;3.80
45850;BMP180;10739;52.198;20.908;2023-01-25T02:44:09;102309.00;;;3.70
45850;BMP180;10739;52.198;20.908;2023-01-25T02:46:37;102303.00;;;3.60
45850;BMP180;10739;52.198;20.908;2023-01-25T02:49:06;102300.00;;;3.50
45850;BMP180;10739;52.198;20.908;2023-01-25T02:51:35;102299.00;;;3.40
45850;BMP180;10739;52.198;20.908;2023-01-25T02:54:04;102299.00;;;4.00
45850;BMP180;10739;52.198;20.908;2023-01-25T02:56:31;102297.00;;;4.30
45850;BMP180;10739;52.198;20.908;2023-01-25T02:58:57;102302.00;;;4.40
45850;BMP180;10739;52.198;20.908;2023-01-25T03:01:24;102301.00;;;4.40
45850;BMP180;10739;52.198;20.908;2023-01-25T03:03:50;102291.00;;;4.50
45850;BMP180;10739;52.198;20.908;2023-01-25T03:06:17;102292.00;;;4.20
45850;BMP180;10739;52.198;20.908;2023-01-25T03:08:43;102285.00;;;4.20
45850;BMP180;10739;52.198;20.908;2023-01-25T03:11:09;102271.00;;;4.40
45850;BMP180;10739;52.198;20.908;2023-01-25T03:13:36;102258.00;;;4.60
45850;BMP180;10739;52.198;20.908;2023-01-25T03:16:08;102257.00;;;4.70
45850;BMP180;10739;52.198;20.908;2023-01-25T03:18:34;102271.00;;;3.80
45850;BMP180;10739;52.198;20.908;2023-01-25T03:21:12;102256.00;;;3.90
45850;BMP180;10739;52.198;20.908;2023-01-25T03:23:38;102262.00;;;4.40
45850;BMP180;10739;52.198;20.908;2023-01-25T03:28:31;102259.00;;;4.40
45850;BMP180;10739;52.198;20.908;2023-01-25T03:30:58;102257.00;;;4.00
45850;BMP180;10739;52.198;20.908;2023-01-25T03:33:24;102258.00;;;3.70
45850;BMP180;10739;52.198;20.908;2023-01-25T03:35:51;102257.00;;;4.00
45850;BMP180;10739;52.198;20.908;2023-01-25T03:38:18;102255.00;;;3.40
45850;BMP180;10739;52.198;20.908;2023-01-25T03:40:45;102246.00;;;3.50
45850;BMP180;10739;52.198;20.908;2023-01-25T03:43:12;102236.00;;;3.90
45850;BMP180;10739;52.198;20.908;2023-01-25T03:45:38;102241.00;;;4.00
45850;BMP180;10739;52.198;20.908;2023-01-25T03:48:05;102244.00;;;3.40
45850;BMP180;10739;52.198;20.908;2023-01-25T03:50:31;102240.00;;;3.00
45850;BMP180;10739;52.198;20.908;2023-01-25T03:52:57;102235.00;;;3.20
45850;BMP180;10739;52.198;20.908;2023-01-25T03:55:27;102242.00;;;3.80
45850;BMP180;10739;52.198;20.908;2023-01-25T03:57:53;102236.00;;;3.90
45850;BMP180;10739;52.198;20.908;2023-01-25T04:00:20;102236.00;;;3.80
45850;BMP180;10739;52.198;20.908;2023-01-25T04:02:46;102253.00;;;3.90
45850;BMP180;10739;52.198;20.908;2023-01-25T04:05:13;102241.00;;;3.90
45850;BMP180;10739;52.198;20.908;2023-01-25T04:07:39;102210.00;;;3.20
45850;BMP180;10739;52.198;20.908;2023-01-25T04:10:05;102228.00;;;3.20
45850;BMP180;10739;52.198;20.908;2023-01-25T04:12:32;102231.00;;;3.90
45850;BMP180;10739;52.198;20.908;2023-01-25T04:14:58;102234.00;;;3.70
45850;BMP180;10739;52.198;20.908;2023-01-25T04:17:24;102230.00;;;3.20
45850;BMP180;10739;52.198;20.908;2023-01-25T04:19:50;102238.00;;;3.80
45850;BMP180;10739;52.198;20.908;2023-01-25T04:22:16;102218.00;;;3.70
45850;BMP180;10739;52.198;20.908;2023-01-25T04:24:42;102229.00;;;3.30
45850;BMP180;10739;52.198;20.908;2023-01-25T04:27:09;102222.00;;;3.40
45850;BMP180;10739;52.198;20.908;2023-01-25T04:29:35;102229.00;;;3.20
45850;BMP180;10739;52.198;20.908;2023-01-25T04:32:01;102229.00;;;3.50
45850;BMP180;10739;52.198;20.908;2023-01-25T04:34:28;102231.00;;;3.60
45850;BMP180;10739;52.198;20.908;2023-01-25T04:36:55;102215.00;;;3.50
45850;BMP180;10739;52.198;20.908;2023-01-25T04:39:22;102216.00;;;3.10
45850;BMP180;10739;52.198;20.908;2023-01-25T04:41:48;102214.00;;;3.00
45850;BMP180;10739;52.198;20.908;2023-01-25T04:44:14;102211.00;;;3.40
45850;BMP180;10739;52.198;20.908;2023-01-25T04:46:40;102216.00;;;3.40
45850;BMP180;10739;52.198;20.908;2023-01-25T04:49:06;102211.00;;;3.30
45850;BMP180;10739;52.198;20.908;2023-01-25T04:51:32;102201.00;;;3.50
45850;BMP180;10739;52.198;20.908;2023-01-25T04:53:58;102211.00;;;3.60
45850;BMP180;10739;52.198;20.908;2023-01-25T04:56:24;102206.00;;;3.40
45850;BMP180;10739;52.198;20.908;2023-01-25T04:58:51;102208.00;;;4.00
45850;BMP180;10739;52.198;20.908;2023-01-25T05:01:17;102217.00;;;4.00
45850;BMP180;10739;52.198;20.908;2023-01-25T05:03:43;102206.00;;;3.70
45850;BMP180;10739;52.198;20.908;2023-01-25T05:06:09;102205.00;;;3.70
45850;BMP180;10739;52.198;20.908;2023-01-25T05:08:35;102211.00;;;4.00
45850;BMP180;10739;52.198;20.908;2023-01-25T05:11:01;102202.00;;;4.10
45850;BMP180;10739;52.198;20.908;2023-01-25T05:13:28;102202.00;;;4.20
45850;BMP180;10739;52.198;20.908;2023-01-25T05:15:55;102208.00;;;4.10
45850;BMP180;10739;52.198;20.908;2023-01-25T05:18:22;102199.00;;;3.60
45850;BMP180;10739;52.198;20.908;2023-01-25T05:20:53;102214.00;;;3.70
45850;BMP180;10739;52.198;20.908;2023-01-25T05:23:21;102200.00;;;3.60
45850;BMP180;10739;52.198;20.908;2023-01-25T05:25:47;102216.00;;;3.50
45850;BMP180;10739;52.198;20.908;2023-01-25T05:28:32;102200.00;;;3.90
45850;BMP180;10739;52.198;20.908;2023-01-25T05:30:58;102206.00;;;3.90
45850;BMP180;10739;52.198;20.908;2023-01-25T05:33:24;102195.00;;;4.10
45850;BMP180;10739;52.198;20.908;2023-01-25T05:35:50;102202.00;;;4.00
45850;BMP180;10739;52.198;20.908;2023-01-25T05:38:16;102196.00;;;3.60
45850;BMP180;10739;52.198;20.908;2023-01-25T05:40:42;102202.00;;;3.70
45850;BMP180;10739;52.198;20.908;2023-01-25T05:43:08;102191.00;;;3.70
45850;BMP180;10739;52.198;20.908;2023-01-25T05:45:34;102195.00;;;3.60
45850;BMP180;10739;52.198;20.908;2023-01-25T05:48:01;102203.00;;;3.50
45850;BMP180;10739;52.198;20.908;2023-01-25T05:50:28;102192.00;;;3.50
45850;BMP180;10739;52.198;20.908;2023-01-25T05:52:54;102199.00;;;3.20
45850;BMP180;10739;52.198;20.908;2023-01-25T05:55:20;102200.00;;;3.40
45850;BMP180;10739;52.198;20.908;2023-01-25T05:57:46;102205.00;;;3.30
45850;BMP180;10739;52.198;20.908;2023-01-25T06:00:13;102195.00;;;3.40
45850;BMP180;10739;52.198;20.908;2023-01-25T06:02:39;102192.00;;;3.40
45850;BMP180;10739;52.198;20.908;2023-01-25T06:05:06;102191.00;;;3.60
45850;BMP180;10739;52.198;20.908;2023-01-25T06:07:33;102184.00;;;3.50
45850;BMP180;10739;52.198;20.908;2023-01-25T06:10:03;102183.00;;;3.80
45850;BMP180;10739;52.198;20.908;2023-01-25T06:12:30;102173.00;;;3.70
45850;BMP180;10739;52.198;20.908;2023-01-25T06:14:56;102170.00;;;3.70
45850;BMP180;10739;52.198;20.908;2023-01-25T06:17:22;102172.00;;;3.60
45850;BMP180;10739;52.198;20.908;2023-01-25T06:19:48;102173.00;;;3.50
45850;BMP180;10739;52.198;20.908;2023-01-25T06:22:14;102176.00;;;3.30
45850;BMP180;10739;52.198;20.908;2023-01-25T06:24:40;102179.00;;;3.10
45850;BMP180;10739;52.198;20.908;2023-01-25T06:27:07;102174.00;;;3.60
45850;BMP180;10739;52.198;20.908;2023-01-25T06:29:36;102168.00;;;3.60
45850;BMP180;10739;52.198;20.908;2023-01-25T06:32:02;102172.00;;;3.60
45850;BMP180;10739;52.198;20.908;2023-01-25T06:34:28;102173.00;;;3.70
45850;BMP180;10739;52.198;20.908;2023-01-25T06:36:55;102172.00;;;3.60
45850;BMP180;10739;52.198;20.908;2023-01-25T06:39:21;102182.00;;;3.50
45850;BMP180;10739;52.198;20.908;2023-01-25T06:41:47;102179.00;;;3.60
45850;BMP180;10739;52.198;20.908;2023-01-25T06:44:13;102179.00;;;3.50
45850;BMP180;10739;52.198;20.908;2023-01-25T06:46:39;102177.00;;;3.20
45850;BMP180;10739;52.198;20.908;2023-01-25T06:49:05;102171.00;;;3.10
45850;BMP180;10739;52.198;20.908;2023-01-25T06:51:32;102159.00;;;3.40
45850;BMP180;10739;52.198;20.908;2023-01-25T06:54:03;102165.00;;;3.60
45850;BMP180;10739;52.198;20.908;2023-01-25T06:56:30;102166.00;;;3.60
45850;BMP180;10739;52.198;20.908;2023-01-25T06:58:57;102170.00;;;3.30
45850;BMP180;10739;52.198;20.908;2023-01-25T07:01:24;102166.00;;;3.60
45850;BMP180;10739;52.198;20.908;2023-01-25T07:03:54;102170.00;;;3.40
45850;BMP180;10739;52.198;20.908;2023-01-25T07:06:22;102164.00;;;3.50
45850;BMP180;10739;52.198;20.908;2023-01-25T07:08:49;102153.00;;;3.60
45850;BMP180;10739;52.198;20.908;2023-01-25T07:11:16;102159.00;;;3.20
45850;BMP180;10739;52.198;20.908;2023-01-25T07:13:44;102146.00;;;3.40
45850;BMP180;10739;52.198;20.908;2023-01-25T07:16:13;102141.00;;;3.00
45850;BMP180;10739;52.198;20.908;2023-01-25T07:18:40;102140.00;;;2.80
45850;BMP180;10739;52.198;20.908;2023-01-25T07:21:11;102133.00;;;3.10
45850;BMP180;10739;52.198;20.908;2023-01-25T07:23:38;102138.00;;;3.00
45850;BMP180;10739;52.198;20.908;2023-01-25T07:26:05;102146.00;;;2.40
45850;BMP180;10739;52.198;20.908;2023-01-25T07:28:32;102129.00;;;2.70
45850;BMP180;10739;52.198;20.908;2023-01-25T07:31:04;102141.00;;;2.50
45850;BMP180;10739;52.198;20.908;2023-01-25T07:33:32;102137.00;;;2.60
45850;BMP180;10739;52.198;20.908;2023-01-25T07:35:59;102139.00;;;3.00
45850;BMP180;10739;52.198;20.908;2023-01-25T07:38:26;102136.00;;;3.60
45850;BMP180;10739;52.198;20.908;2023-01-25T07:40:52;102121.00;;;3.10
45850;BMP180;10739;52.198;20.908;2023-01-25T07:43:19;102121.00;;;3.30
45850;BMP180;10739;52.198;20.908;2023-01-25T07:45:45;102122.00;;;3.20
45850;BMP180;10739;52.198;20.908;2023-01-25T07:48:16;102133.00;;;3.50
45850;BMP180;10739;52.198;20.908;2023-01-25T07:50:42;102119.00;;;3.40
45850;BMP180;10739;52.198;20.908;2023-01-25T07:53:15;102131.00;;;3.30
45850;BMP180;10739;52.198;20.908;2023-01-25T07:55:41;102130.00;;;3.30
45850;BMP180;10739;52.198;20.908;2023-01-25T07:58:09;102118.00;;;3.40
45850;BMP180;10739;52.198;20.908;2023-01-25T08:00:36;102122.00;;;3.30
45850;BMP180;10739;52.198;20.908;2023-01-25T08:03:02;102120.00;;;3.40
45850;BMP180;10739;52.198;20.908;2023-01-25T08:05:29;102127.00;;;3.30
45850;BMP180;10739;52.198;20.908;2023-01-25T08:07:55;102127.00;;;3.50
45850;BMP180;10739;52.198;20.908;2023-01-25T08:10:21;102125.00;;;3.40
45850;BMP180;10739;52.198;20.908;2023-01-25T08:12:48;102126.00;;;3.60
45850;BMP180;10739;52.198;20.908;2023-01-25T08:15:14;102122.00;;;3.60
45850;BMP180;10739;52.198;20.908;2023-01-25T08:17:40;102120.00;;;3.80
45850;BMP180;10739;52.198;20.908;2023-01-25T08:20:07;102116.00;;;3.80
45850;BMP180;10739;52.198;20.908;2023-01-25T08:22:33;102114.00;;;3.60
45850;BMP180;10739;52.198;20.908;2023-01-25T08:25:03;102111.00;;;3.70
45850;BMP180;10739;52.198;20.908;2023-01-25T08:27:30;102117.00;;;3.50
45850;BMP180;10739;52.198;20.908;2023-01-25T08:29:56;102114.00;;;3.30
45850;BMP180;10739;52.198;20.908;2023-01-25T08:32:22;102112.00;;;3.70
45850;BMP180;10739;52.198;20.908;2023-01-25T08:34:48;102115.00;;;3.50
45850;BMP180;10739;52.198;20.908;2023-01-25T08:37:15;102111.00;;;3.00
45850;BMP180;10739;52.198;20.908;2023-01-25T08:39:41;102098.00;;;3.40
45850;BMP180;10739;52.198;20.908;2023-01-25T08:42:07;102099.00;;;3.30
45850;BMP180;10739;52.198;20.908;2023-01-25T08:44:33;102098.00;;;3.80
45850;BMP180;10739;52.198;20.908;2023-01-25T08:47:00;102094.00;;;3.30
45850;BMP180;10739;52.198;20.908;2023-01-25T08:49:26;102098.00;;;3.50
45850;BMP180;10739;52.198;20.908;2023-01-25T08:51:52;102090.00;;;3.70
45850;BMP180;10739;52.198;20.908;2023-01-25T08:54:28;102094.00;;;3.70
45850;BMP180;10739;52.198;20.908;2023-01-25T08:56:54;102092.00;;;3.50
45850;BMP180;10739;52.198;20.908;2023-01-25T08:59:20;102081.00;;;3.60
45850;BMP180;10739;52.198;20.908;2023-01-25T09:01:46;102090.00;;;3.40
45850;BMP180;10739;52.198;20.908;2023-01-25T09:04:12;102086.00;;;3.40
45850;BMP180;10739;52.198;20.908;2023-01-25T09:06:39;102088.00;;;3.00
45850;BMP180;10739;52.198;20.908;2023-01-25T09:09:05;102097.00;;;3.40
45850;BMP180;10739;52.198;20.908;2023-01-25T09:11:34;102082.00;;;3.40
45850;BMP180;10739;52.198;20.908;2023-01-25T09:14:03;102082.00;;;3.40
45850;BMP180;10739;52.198;20.908;2023-01-25T09:16:30;102086.00;;;3.50
45850;BMP180;10739;52.198;20.908;2023-01-25T09:19:01;102080.00;;;3.30
45850;BMP180;10739;52.198;20.908;2023-01-25T09:21:28;102073.00;;;3.30
45850;BMP180;10739;52.198;20.908;2023-01-25T09:23:54;102074.00;;;2.80
45850;BMP180;10739;52.198;20.908;2023-01-25T09:26:20;102064.00;;;3.30
45850;BMP180;10739;52.198;20.908;2023-01-25T09:28:49;102061.00;;;3.10
45850;BMP180;10739;52.198;20.908;2023-01-25T09:31:16;102079.00;;;2.90
45850;BMP180;10739;52.198;20.908;2023-01-25T09:33:43;102071.00;;;2.70
45850;BMP180;10739;52.198;20.908;2023-01-25T09:36:10;102057.00;;;3.10
45850;BMP180;10739;52.198;20.908;2023-01-25T09:38:36;102059.00;;;3.30
45850;BMP180;10739;52.198;20.908;2023-01-25T09:43:40;102052.00;;;2.90
45850;BMP180;10739;52.198;20.908;2023-01-25T09:46:24;102042.00;;;3.00
45850;BMP180;10739;52.198;20.908;2023-01-25T09:49:08;102030.00;;;3.20
45850;BMP180;10739;52.198;20.908;2023-01-25T09:51:52;102027.00;;;3.10
45850;BMP180;10739;52.198;20.908;2023-01-25T09:54:23;102042.00;;;3.30
45850;BMP180;10739;52.198;20.908;2023-01-25T09:56:50;102030.00;;;3.40
45850;BMP180;10739;52.198;20.908;2023-01-25T09:59:20;102019.00;;;3.50
45850;BMP180;10739;52.198;20.908;2023-01-25T10:02:04;102029.00;;;3.40
45850;BMP180;10739;52.198;20.908;2023-01-25T10:04:40;102021.00;;;2.80
45850;BMP180;10739;52.198;20.908;2023-01-25T10:07:17;102020.00;;;3.20
45850;BMP180;10739;52.198;20.908;2023-01-25T10:10:02;102017.00;;;3.20
45850;BMP180;10739;52.198;20.908;2023-01-25T10:12:35;102023.00;;;3.60
45850;BMP180;10739;52.198;20.908;2023-01-25T10:15:01;102012.00;;;3.40
45850;BMP180;10739;52.198;20.908;2023-01-25T10:17:39;102001.00;;;3.50
45850;BMP180;10739;52.198;20.908;2023-01-25T10:20:48;102006.00;;;3.30
45850;BMP180;10739;52.198;20.908;2023-01-25T10:23:27;101995.00;;;3.70
45850;BMP180;10739;52.198;20.908;2023-01-25T10:25:58;101998.00;;;3.30
45850;BMP180;10739;52.198;20.908;2023-01-25T10:30:59;101990.00;;;3.40
45850;BMP180;10739;52.198;20.908;2023-01-25T10:33:28;101994.00;;;3.50
45850;BMP180;10739;52.198;20.908;2023-01-25T10:35:57;101982.00;;;3.10
45850;BMP180;10739;52.198;20.908;2023-01-25T10:38:38;101975.00;;;3.20
45850;BMP180;10739;52.198;20.908;2023-01-25T10:43:53;101959.00;;;2.70
45850;BMP180;10739;52.198;20.908;2023-01-25T10:46:47;101961.00;;;2.70
45850;BMP180;10739;52.198;20.908;2023-01-25T10:49:54;101955.00;;;3.30
45850;BMP180;10739;52.198;20.908;2023-01-25T10:55:14;101955.00;;;3.50
45850;BMP180;10739;52.198;20.908;2023-01-25T10:57:50;101946.00;;;3.20
45850;BMP180;10739;52.198;20.908;2023-01-25T11:00:36;101953.00;;;3.30
45850;BMP180;10739;52.198;20.908;2023-01-25T11:03:03;101961.00;;;2.80
45850;BMP180;10739;52.198;20.908;2023-01-25T11:05:37;101951.00;;;3.00
45850;BMP180;10739;52.198;20.908;2023-01-25T11:08:23;101939.00;;;3.20
45850;BMP180;10739;52.198;20.908;2023-01-25T11:10:50;101932.00;;;3.70
45850;BMP180;10739;52.198;20.908;2023-01-25T11:13:19;101928.00;;;4.00
45850;BMP180;10739;52.198;20.908;2023-01-25T11:15:49;101935.00;;;3.70
45850;BMP180;10739;52.198;20.908;2023-01-25T11:18:27;101930.00;;;3.30
45850;BMP180;10739;52.198;20.908;2023-01-25T11:21:12;101911.00;;;3.20
45850;BMP180;10739;52.198;20.908;2023-01-25T11:26:38;101913.00;;;3.00
45850;BMP180;10739;52.198;20.908;2023-01-25T11:31:32;101900.00;;;3.40
45850;BMP180;10739;52.198;20.908;2023-01-25T11:33:58;101905.00;;;3.80
45850;BMP180;10739;52.198;20.908;2023-01-25T11:39:12;101907.00;;;3.90
45850;BMP180;10739;52.198;20.908;2023-01-25T11:56:10;101885.00;;;3.80
45850;BMP180;10739;52.198;20.908;2023-01-25T12:04:31;101876.00;;;3.50
45850;BMP180;10739;52.198;20.908;2023-01-25T12:07:11;101876.00;;;4.10
45850;BMP180;10739;52.198;20.908;2023-01-25T12:09:56;101878.00;;;3.50
45850;BMP180;10739;52.198;20.908;2023-01-25T12:12:49;101862.00;;;3.40
45850;BMP180;10739;52.198;20.908;2023-01-25T12:15:24;101850.00;;;3.00
45850;BMP180;10739;52.198;20.908;2023-01-25T12:23:35;101823.00;;;3.10
45850;BMP180;10739;52.198;20.908;2023-01-25T12:26:25;101832.00;;;3.30
45850;BMP180;10739;52.198;20.908;2023-01-25T12:28:58;101820.00;;;3.70
45850;BMP180;10739;52.198;20.908;2023-01-25T12:34:21;101822.00;;;3.00
45850;BMP180;10739;52.198;20.908;2023-01-25T12:36:50;101818.00;;;2.60
45850;BMP180;10739;52.198;20.908;2023-01-25T12:39:22;101824.00;;;3.10
45850;BMP180;10739;52.198;20.908;2023-01-25T12:42:07;101824.00;;;3.40
45850;BMP180;10739;52.198;20.908;2023-01-25T12:44:55;101815.00;;;3.30
45850;BMP180;10739;52.198;20.908;2023-01-25T12:47:55;101815.00;;;3.80
45850;BMP180;10739;52.198;20.908;2023-01-25T12:50:31;101813.00;;;4.00
45850;BMP180;10739;52.198;20.908;2023-01-25T12:55:37;101816.00;;;4.10
45850;BMP180;10739;52.198;20.908;2023-01-25T13:10:12;101811.00;;;4.40
45850;BMP180;10739;52.198;20.908;2023-01-25T13:12:11;101793.00;;;4.60
45850;BMP180;10739;52.198;20.908;2023-01-25T13:14:39;101800.00;;;4.10
45850;BMP180;10739;52.198;20.908;2023-01-25T13:19:41;101790.00;;;4.10
45850;BMP180;10739;52.198;20.908;2023-01-25T13:22:09;101794.00;;;4.20
45850;BMP180;10739;52.198;20.908;2023-01-25T13:27:29;101776.00;;;3.90
45850;BMP180;10739;52.198;20.908;2023-01-25T13:30:00;101767.00;;;4.20
45850;BMP180;10739;52.198;20.908;2023-01-25T13:34:55;101765.00;;;3.00
45850;BMP180;10739;52.198;20.908;2023-01-25T13:37:24;101765.00;;;3.00
45850;BMP180;10739;52.198;20.908;2023-01-25T13:42:25;101761.00;;;3.30
45850;BMP180;10739;52.198;20.908;2023-01-25T13:44:55;101769.00;;;3.10
45850;BMP180;10739;52.198;20.908;2023-01-25T13:47:25;101771.00;;;3.40
45850;BMP180;10739;52.198;20.908;2023-01-25T13:49:59;101754.00;;;3.30
45850;BMP180;10739;52.198;20.908;2023-01-25T13:52:27;101746.00;;;3.50
45850;BMP180;10739;52.198;20.908;2023-01-25T13:54:57;101739.00;;;3.20
45850;BMP180;10739;52.198;20.908;2023-01-25T13:57:28;101734.00;;;3.50
45850;BMP180;10739;52.198;20.908;2023-01-25T14:00:12;101738.00;;;3.20
45850;BMP180;10739;52.198;20.908;2023-01-25T14:02:40;101732.00;;;3.30
45850;BMP180;10739;52.198;20.908;2023-01-25T14:05:21;101725.00;;;3.80
45850;BMP180;10739;52.198;20.908;2023-01-25T14:07:51;101719.00;;;4.00
45850;BMP180;10739;52.198;20.908;2023-01-25T14:10:21;101736.00;;;3.60
45850;BMP180;10739;52.198;20.908;2023-01-25T14:12:50;101726.00;;;3.50
45850;BMP180;10739;52.198;20.908;2023-01-25T14:15:28;101723.00;;;3.90
45850;BMP180;10739;52.198;20.908;2023-01-25T14:18:25;101730.00;;;3.70
45850;BMP180;10739;52.198;20.908;2023-01-25T14:21:15;101730.00;;;3.30
45850;BMP180;10739;52.198;20.908;2023-01-25T14:23:42;101728.00;;;3.70
45850;BMP180;10739;52.198;20.908;2023-01-25T14:26:26;101719.00;;;3.80
45850;BMP180;10739;52.198;20.908;2023-01-25T14:28:55;101715.00;;;3.70
45850;BMP180;10739;52.198;20.908;2023-01-25T14:31:24;101712.00;;;4.10
45850;BMP180;10739;52.198;20.908;2023-01-25T14:33:51;101708.00;;;3.80
45850;BMP180;10739;52.198;20.908;2023-01-25T14:36:29;101697.00;;;3.70
45850;BMP180;10739;52.198;20.908;2023-01-25T14:38:56;101701.00;;;3.90
45850;BMP180;10739;52.198;20.908;2023-01-25T14:41:32;101697.00;;;3.70
45850;BMP180;10739;52.198;20.908;2023-01-25T14:44:25;101705.00;;;3.50
45850;BMP180;10739;52.198;20.908;2023-01-25T14:47:30;101699.00;;;3.50
45850;BMP180;10739;52.198;20.908;2023-01-25T14:52:54;101683.00;;;3.40
45850;BMP180;10739;52.198;20.908;2023-01-25T14:55:21;101684.00;;;2.90
45850;BMP180;10739;52.198;20.908;2023-01-25T14:57:48;101677.00;;;3.20
45850;BMP180;10739;52.198;20.908;2023-01-25T15:07:48;101675.00;;;3.50
45850;BMP180;10739;52.198;20.908;2023-01-25T15:10:15;101661.00;;;3.10
45850;BMP180;10739;52.198;20.908;2023-01-25T15:16:08;101665.00;;;3.40
45850;BMP180;10739;52.198;20.908;2023-01-25T15:18:45;101655.00;;;3.60
45850;BMP180;10739;52.198;20.908;2023-01-25T15:21:15;101657.00;;;3.20
45850;BMP180;10739;52.198;20.908;2023-01-25T15:23:46;101653.00;;;3.50
45850;BMP180;10739;52.198;20.908;2023-01-25T15:26:27;101654.00;;;3.40
45850;BMP180;10739;52.198;20.908;2023-01-25T15:28:58;101649.00;;;3.30
45850;BMP180;10739;52.198;20.908;2023-01-25T15:31:30;101643.00;;;3.40
45850;BMP180;10739;52.198;20.908;2023-01-25T15:33:56;101656.00;;;3.50
45850;BMP180;10739;52.198;20.908;2023-01-25T15:36:23;101645.00;;;3.30
45850;BMP180;10739;52.198;20.908;2023-01-25T15:38:49;101632.00;;;3.50
45850;BMP180;10739;52.198;20.908;2023-01-25T15:41:15;101628.00;;;3.10
45850;BMP180;10739;52.198;20.908;2023-01-25T15:43:47;101636.00;;;3.40
45850;BMP180;10739;52.198;20.908;2023-01-25T15:46:25;101624.00;;;3.00